createdAt,value
2018-11-20T00:03:42.904Z,8.10
2018-11-20T00:10:06.314Z,8.70
2018-11-20T00:16:47.637Z,7.97
2018-11-20T00:23:22.760Z,8.83
2018-11-20T00:29:54.649Z,8.23
2018-11-20T00:36:20.631Z,8.13
2018-11-20T00:42:41.060Z,8.27
2018-11-20T00:49:04.477Z,8.57
2018-11-20T00:56:04.144Z,9.07
2018-11-20T01:02:33.449Z,9.10
2018-11-20T01:08:58.183Z,9.87
2018-11-20T01:15:36.622Z,9.83
2018-11-20T01:21:58.785Z,9.97
2018-11-20T01:28:28.194Z,10.40
2018-11-20T01:34:54.263Z,10.40
2018-11-20T01:41:13.180Z,10.97
2018-11-20T01:47:28.315Z,10.07
2018-11-20T01:54:10.082Z,10.20
2018-11-20T02:00:51.511Z,11.77
2018-11-20T02:07:13.618Z,12.10
2018-11-20T02:14:03.808Z,11.60
2018-11-20T02:20:27.744Z,10.30
2018-11-20T02:27:00.267Z,11.37
2018-11-20T02:33:38.230Z,11.20
2018-11-20T02:40:04.365Z,11.30
2018-11-20T02:46:33.587Z,11.47
2018-11-20T02:52:57.014Z,10.90
2018-11-20T02:59:18.705Z,12.33
2018-11-20T03:05:37.913Z,11.53
2018-11-20T03:12:10.030Z,11.20
2018-11-20T03:18:33.540Z,10.77
2018-11-20T03:24:49.225Z,11.67
2018-11-20T03:31:32.831Z,11.27
2018-11-20T03:38:08.198Z,11.97
2018-11-20T03:44:28.934Z,12.37
2018-11-20T03:50:50.824Z,12.20
2018-11-20T03:57:11.340Z,11.53
2018-11-20T04:03:34.758Z,12.77
2018-11-20T04:10:01.259Z,12.40
2018-11-20T04:16:17.079Z,12.70
2018-11-20T04:22:37.114Z,13.47
2018-11-20T04:28:53.136Z,13.20
2018-11-20T04:35:30.037Z,14.73
2018-11-20T04:41:54.165Z,16.23
2018-11-20T04:48:14.925Z,16.60
2018-11-20T04:54:47.216Z,17.03
2018-11-20T05:01:17.065Z,16.23
2018-11-20T05:07:46.585Z,17.47
2018-11-20T05:14:08.622Z,18.63
2018-11-20T05:20:43.963Z,18.27
2018-11-20T05:27:08.801Z,18.17
2018-11-20T05:33:31.049Z,16.97
2018-11-20T05:40:00.014Z,19.13
2018-11-20T05:46:29.169Z,18.40
2018-11-20T05:52:55.249Z,20.63
2018-11-20T05:59:36.253Z,20.43
2018-11-20T06:06:05.608Z,19.37
2018-11-20T06:12:31.578Z,21.03
2018-11-20T06:18:53.209Z,20.97
2018-11-20T06:25:14.714Z,22.93
2018-11-20T06:31:47.251Z,22.03
2018-11-20T06:38:01.586Z,22.17
2018-11-20T06:44:23.934Z,22.60
2018-11-20T06:50:48.236Z,24.73
2018-11-20T06:57:17.642Z,22.83
2018-11-20T07:03:52.980Z,24.43
2018-11-20T07:10:09.507Z,21.77
2018-11-20T07:16:53.229Z,21.80
2018-11-20T07:23:14.173Z,21.67
2018-11-20T07:36:03.664Z,21.40
2018-11-20T07:42:25.410Z,22.67
2018-11-20T07:48:54.803Z,23.17
2018-11-20T07:55:20.881Z,21.50
2018-11-20T08:01:41.894Z,21.83
2018-11-20T08:08:14.072Z,23.47
2018-11-20T08:14:51.860Z,21.50
2018-11-20T08:21:27.263Z,20.90
2018-11-20T08:27:45.526Z,22.60
2018-11-20T08:34:08.834Z,21.97
2018-11-20T08:40:33.821Z,21.50
2018-11-20T08:46:59.961Z,21.37
2018-11-20T08:53:22.163Z,22.67
2018-11-20T08:59:54.333Z,21.00
2018-11-20T09:06:29.535Z,22.53
2018-11-20T09:12:51.286Z,21.50
2018-11-20T09:19:32.566Z,20.50
2018-11-20T09:25:55.480Z,20.70
2018-11-20T09:32:27.683Z,21.77
2018-11-20T09:39:05.970Z,22.07
2018-11-20T09:45:56.574Z,23.20
2018-11-20T09:52:18.777Z,20.77
2018-11-20T09:58:33.728Z,21.67
2018-11-20T10:05:12.173Z,22.20
2018-11-20T10:11:53.778Z,21.87
2018-11-20T10:18:19.890Z,22.17
2018-11-20T10:24:36.327Z,22.37
2018-11-20T10:31:06.931Z,21.13
2018-11-20T10:37:19.160Z,21.43
2018-11-20T10:43:56.316Z,21.80
2018-11-20T10:50:37.873Z,22.60
2018-11-20T10:56:59.761Z,21.03
2018-11-20T11:03:25.852Z,22.43
2018-11-20T11:10:04.424Z,22.27
2018-11-20T11:16:39.066Z,21.00
2018-11-20T11:23:09.703Z,21.20
2018-11-20T11:29:31.616Z,22.03
2018-11-20T11:35:56.676Z,21.27
2018-11-20T11:42:21.733Z,21.57
2018-11-20T11:48:51.323Z,20.97
2018-11-20T11:55:24.204Z,21.93
2018-11-20T12:08:22.512Z,22.33
2018-11-20T12:14:51.947Z,21.70
2018-11-20T12:21:17.904Z,23.60
2018-11-20T12:27:40.435Z,22.27
2018-11-20T12:34:03.478Z,22.40
2018-11-20T12:40:42.204Z,23.07
2018-11-20T12:47:09.338Z,21.67
2018-11-20T12:53:31.918Z,23.13
2018-11-20T12:59:58.662Z,22.20
2018-11-20T13:06:37.202Z,21.33
2018-11-20T13:13:01.020Z,22.20
2018-11-20T13:19:25.468Z,24.03
2018-11-20T13:25:46.745Z,22.23
2018-11-20T13:32:08.830Z,22.87
2018-11-20T13:38:52.022Z,21.50
2018-11-20T13:45:18.470Z,23.67
2018-11-20T13:51:35.831Z,22.40
2018-11-20T13:58:03.719Z,22.17
2018-11-20T14:04:31.812Z,24.43
2018-11-20T14:10:55.253Z,23.27
2018-11-20T14:17:30.866Z,24.50
2018-11-20T14:23:53.131Z,23.23
2018-11-20T14:30:14.993Z,22.70
2018-11-20T14:36:37.047Z,22.40
2018-11-20T14:43:10.784Z,22.13
2018-11-20T14:49:40.971Z,24.07
2018-11-20T14:55:59.153Z,23.10
2018-11-20T15:02:37.176Z,22.33
2018-11-20T15:09:06.326Z,22.80
2018-11-20T15:15:31.957Z,22.77
2018-11-20T15:22:01.297Z,22.67
2018-11-20T15:28:24.817Z,22.23
2018-11-20T15:34:46.714Z,22.57
2018-11-20T15:40:57.955Z,23.07
2018-11-20T15:47:24.073Z,22.03
2018-11-20T15:53:53.415Z,22.50
2018-11-20T16:00:15.149Z,23.43
2018-11-20T16:06:44.373Z,22.53
2018-11-20T16:12:57.330Z,23.10
2018-11-20T16:19:29.784Z,22.30
2018-11-20T16:26:02.038Z,23.17
2018-11-20T16:32:34.326Z,23.43
2018-11-20T16:38:57.920Z,25.03
2018-11-20T16:45:24.264Z,24.23
2018-11-20T16:51:39.156Z,23.77
2018-11-20T16:58:01.258Z,22.60
2018-11-20T17:04:23.688Z,25.40
2018-11-20T17:10:47.108Z,23.83
2018-11-20T17:17:09.611Z,25.77
2018-11-20T17:23:33.441Z,23.70
2018-11-20T17:29:55.978Z,25.00
2018-11-20T17:36:22.414Z,24.00
2018-11-20T17:42:54.429Z,23.80
2018-11-20T17:49:20.851Z,25.40
2018-11-20T17:55:53.243Z,24.60
2018-11-20T18:02:13.090Z,24.97
2018-11-20T18:08:54.595Z,23.53
2018-11-20T18:15:26.624Z,24.53
2018-11-20T18:21:58.898Z,25.47
2018-11-20T18:28:19.300Z,25.00
2018-11-20T18:34:32.549Z,24.77
2018-11-20T18:40:55.949Z,27.13
2018-11-20T18:47:31.416Z,25.37
2018-11-20T18:53:53.543Z,26.20
2018-11-20T19:00:32.027Z,25.50
2018-11-20T19:06:58.356Z,26.37
2018-11-20T19:13:59.017Z,30.00
2018-11-20T19:20:20.039Z,30.77
2018-11-20T19:26:32.254Z,29.17
2018-11-20T19:32:53.506Z,31.50
2018-11-20T19:39:14.764Z,28.37
2018-11-20T19:45:36.373Z,26.10
2018-11-20T19:52:08.092Z,28.83
2018-11-20T19:58:32.839Z,28.00
2018-11-20T20:04:55.409Z,26.60
2018-11-20T20:11:14.484Z,27.53
2018-11-20T20:17:40.552Z,25.90
2018-11-20T20:24:01.093Z,27.27
2018-11-20T20:30:21.346Z,24.77
2018-11-20T20:36:46.663Z,25.60
2018-11-20T20:43:11.794Z,25.13
2018-11-20T20:49:21.726Z,25.97
2018-11-20T20:55:46.854Z,27.37
2018-11-20T21:02:08.072Z,25.13
2018-11-20T21:08:45.288Z,25.33
2018-11-20T21:15:05.629Z,26.87
2018-11-20T21:21:23.421Z,28.10
2018-11-20T21:27:48.683Z,29.87
2018-11-20T21:34:11.397Z,27.03
2018-11-20T21:40:48.911Z,28.93
2018-11-20T21:47:20.545Z,27.13
2018-11-20T21:53:37.501Z,26.03
2018-11-20T22:00:09.698Z,26.63
2018-11-20T22:06:35.099Z,27.83
2018-11-20T22:13:06.999Z,28.03
2018-11-20T22:19:28.179Z,27.53
2018-11-20T22:25:49.438Z,26.70
2018-11-20T22:32:14.932Z,27.43
2018-11-20T22:38:35.954Z,27.00
2018-11-20T22:44:57.235Z,27.83
2018-11-20T22:51:31.970Z,27.80
2018-11-20T22:57:48.465Z,26.00
2018-11-20T23:04:09.889Z,25.70
2018-11-20T23:10:18.107Z,27.27
2018-11-20T23:16:21.558Z,27.20
2018-11-20T23:22:25.202Z,26.27
2018-11-20T23:28:28.662Z,27.43
2018-11-20T23:34:32.083Z,27.37
2018-11-20T23:40:35.509Z,27.23
2018-11-20T23:46:39.312Z,27.30
2018-11-20T23:52:42.770Z,28.10
2018-11-20T23:58:46.336Z,27.60
